Time;durP1;ratioP1;P1;durP2;ratioP2;P2;SDS_P1;SDS_P2;PMS_P1;PMS_P2;Temp;Humidity;BMP_temperature;BMP_pressure;BME280_temperature;BME280_humidity;BME280_pressure;Samples;Min_cycle;Max_cycle;Signal;HPM_P1;HPM_P2
2023/08/01 00:05:33;;;;;;;2.50;2.00;;;;;;;;;;5029421;28;20222;-37
2023/08/01 00:24:09;;;;;;;2.50;2.30;;;;;;;;;;5110505;28;20649;-40
2023/08/01 00:26:59;;;;;;;2.90;2.53;;;;;;;;;;5101611;28;20200;-35
2023/08/01 00:29:38;;;;;;;2.70;2.50;;;;;;;;;;5095527;28;20220;-38
2023/08/01 00:32:21;;;;;;;2.43;2.20;;;;;;;;;;5111407;28;20200;-33
2023/08/01 00:35:03;;;;;;;4.97;2.57;;;;;;;;;;5111766;28;20312;-36
2023/08/01 00:37:47;;;;;;;3.10;2.10;;;;;;;;;;5096945;28;20288;-33
2023/08/01 00:41:05;;;;;;;3.10;2.27;;;;;;;;;;5102960;28;20217;-36
2023/08/01 00:44:14;;;;;;;3.17;2.30;;;;;;;;;;5106074;28;20227;-35
2023/08/01 00:46:54;;;;;;;3.47;2.63;;;;;;;;;;5092244;28;20283;-36
2023/08/01 00:50:06;;;;;;;2.23;2.03;;;;;;;;;;5091021;28;20224;-33
2023/08/01 00:52:52;;;;;;;2.30;2.10;;;;;;;;;;5096330;28;20212;-36
2023/08/01 00:59:01;;;;;;;3.67;2.40;;;;;;;;;;5060804;28;20589;-34
2023/08/01 01:10:57;;;;;;;3.00;2.00;;;;;;;;;;5095903;28;20247;-39
2023/08/01 01:13:48;;;;;;;5.73;2.10;;;;;;;;;;5101716;28;20242;-31
2023/08/01 01:16:55;;;;;;;2.40;2.20;;;;;;;;;;5094342;28;20279;-34
2023/08/01 01:19:50;;;;;;;2.37;2.17;;;;;;;;;;5091121;28;20238;-39
2023/08/01 01:22:58;;;;;;;;;;;;;;;;;;;;;
2023/08/01 01:25:54;;;;;;;3.77;2.37;;;;;;;;;;5098440;28;20213;-37
2023/08/01 01:28:38;;;;;;;3.00;2.03;;;;;;;;;;5081694;28;20213;-37
2023/08/01 01:37:21;;;;;;;4.40;2.43;;;;;;;;;;5092762;28;20758;-34
2023/08/01 01:40:19;;;;;;;4.00;2.60;;;;;;;;;;5067083;28;20650;-38
2023/08/01 01:43:01;;;;;;;2.60;2.30;;;;;;;;;;5086132;28;20213;-37
2023/08/01 01:45:37;;;;;;;4.17;2.20;;;;;;;;;;5086630;28;20202;-35
2023/08/01 01:48:10;;;;;;;2.67;2.20;;;;;;;;;;5092174;28;20209;-37
2023/08/01 01:50:39;;;;;;;5.00;2.93;;;;;;;;;;5090839;28;20267;-33
2023/08/01 01:53:11;;;;;;;2.50;2.30;;;;;;;;;;5085921;28;20206;-36
2023/08/01 02:14:20;;;;;;;7.95;2.45;;;;;;;;;;5594656;22;16357520;-37
2023/08/01 02:20:52;;;;;;;3.13;2.73;;;;;;;;;;6283410;22;20202;-38
2023/08/01 02:23:49;;;;;;;2.70;2.37;;;;;;;;;;6286305;22;20173;-33
2023/08/01 02:27:02;;;;;;;4.93;2.90;;;;;;;;;;6280716;22;20199;-37
2023/08/01 02:32:44;;;;;;;2.77;2.07;;;;;;;;;;6286038;22;20176;-34
2023/08/01 02:52:30;;;;;;;4.87;2.53;;;;;;;;;;6194512;23;20603;-29
2023/08/01 03:13:37;;;;;;;2.53;2.33;;;;;;;;;;6198316;22;20751;-27
2023/08/01 03:16:29;;;;;;;4.73;2.57;;;;;;;;;;6217019;23;20174;-30
2023/08/01 03:21:48;;;;;;;4.57;2.40;;;;;;;;;;6216353;23;20230;-29
2023/08/01 03:27:37;;;;;;;4.70;2.30;;;;;;;;;;5148207;27;20582;-37
2023/08/01 03:30:18;;;;;;;3.17;2.60;;;;;;;;;;5148085;27;20294;-37
2023/08/01 03:33:00;;;;;;;3.73;2.73;;;;;;;;;;5134188;27;20260;-39
2023/08/01 03:35:39;;;;;;;3.53;3.03;;;;;;;;;;5148759;27;20202;-37
2023/08/01 03:38:18;;;;;;;3.33;2.87;;;;;;;;;;5140225;27;20214;-36
2023/08/01 03:40:57;;;;;;;3.33;2.60;;;;;;;;;;5148533;27;20198;-42
2023/08/01 03:46:48;;;;;;;3.80;2.37;;;;;;;;;;5125850;28;20227;-28
2023/08/01 03:52:32;;;;;;;5.33;2.80;;;;;;;;;;5123467;28;20233;-28
2023/08/01 04:10:30;;;;;;;3.93;2.60;;;;;;;;;;5356533;22;20270;-25
2023/08/01 04:12:57;;;;;;;3.40;2.30;;;;;;;;;;5103833;28;20200;-26
2023/08/01 04:15:24;;;;;;;3.70;2.70;;;;;;;;;;5106941;28;20287;-28
2023/08/01 04:17:52;;;;;;;2.87;2.50;;;;;;;;;;5107168;28;20291;-28
2023/08/01 04:20:19;;;;;;;3.37;2.73;;;;;;;;;;5108162;28;20319;-29
2023/08/01 04:22:46;;;;;;;3.87;2.57;;;;;;;;;;5117789;28;20200;-29
2023/08/01 04:25:13;;;;;;;5.93;2.80;;;;;;;;;;5119012;28;20199;-28
2023/08/01 04:27:41;;;;;;;4.00;2.70;;;;;;;;;;5119387;28;20208;-25
2023/08/01 04:30:09;;;;;;;5.90;2.90;;;;;;;;;;5118394;28;20216;-28
2023/08/01 04:32:36;;;;;;;5.37;3.03;;;;;;;;;;5107067;28;20298;-29
2023/08/01 04:35:03;;;;;;;3.60;2.60;;;;;;;;;;5107030;28;20204;-26
2023/08/01 04:37:31;;;;;;;3.27;2.77;;;;;;;;;;5108655;28;20201;-28
2023/08/01 04:39:58;;;;;;;3.57;2.53;;;;;;;;;;5095258;28;20221;-30
2023/08/01 04:42:25;;;;;;;3.87;2.70;;;;;;;;;;5095328;28;20197;-29
2023/08/01 04:44:54;;;;;;;2.37;2.10;;;;;;;;;;5102849;28;20207;-27
2023/08/01 04:47:22;;;;;;;5.80;2.80;;;;;;;;;;5106322;28;20224;-30
2023/08/01 04:49:49;;;;;;;3.60;2.13;;;;;;;;;;5102316;28;20243;-24
2023/08/01 04:52:16;;;;;;;4.30;2.63;;;;;;;;;;5101411;28;20207;-29
2023/08/01 04:54:44;;;;;;;7.20;2.70;;;;;;;;;;5104112;28;20200;-26
2023/08/01 04:57:11;;;;;;;4.40;2.63;;;;;;;;;;5103020;28;20197;-28
2023/08/01 04:59:38;;;;;;;3.50;2.70;;;;;;;;;;5102021;28;20216;-28
2023/08/01 05:02:07;;;;;;;2.77;2.20;;;;;;;;;;5115067;28;20208;-27
2023/08/01 05:04:40;;;;;;;4.83;2.37;;;;;;;;;;5115376;28;20206;-28
2023/08/01 05:07:07;;;;;;;2.63;2.10;;;;;;;;;;5104674;28;20215;-24
2023/08/01 05:09:34;;;;;;;3.03;2.13;;;;;;;;;;5113724;28;20231;-27
2023/08/01 05:12:01;;;;;;;5.57;2.73;;;;;;;;;;5100011;28;20211;-27
2023/08/01 05:14:28;;;;;;;3.00;2.57;;;;;;;;;;5113953;28;20212;-25
2023/08/01 05:16:55;;;;;;;3.00;2.57;;;;;;;;;;5104766;28;20203;-29
2023/08/01 05:19:24;;;;;;;5.13;2.50;;;;;;;;;;5105142;28;20224;-26
2023/08/01 05:21:51;;;;;;;3.30;2.50;;;;;;;;;;5109795;28;20201;-27
2023/08/01 05:24:18;;;;;;;3.33;2.40;;;;;;;;;;5104282;28;20215;-25
2023/08/01 05:26:45;;;;;;;2.60;2.30;;;;;;;;;;5101549;28;20228;-26
2023/08/01 05:29:12;;;;;;;6.53;2.87;;;;;;;;;;5104725;28;20220;-25
2023/08/01 05:31:39;;;;;;;5.07;2.73;;;;;;;;;;5110751;28;20207;-24
2023/08/01 05:34:06;;;;;;;2.53;2.17;;;;;;;;;;5115048;28;20212;-26
2023/08/01 05:36:36;;;;;;;5.03;3.00;;;;;;;;;;5109991;28;20299;-25
2023/08/01 05:39:04;;;;;;;6.53;2.57;;;;;;;;;;5109088;28;20224;-27
2023/08/01 05:41:31;;;;;;;3.93;2.77;;;;;;;;;;5092707;28;20204;-24
2023/08/01 05:43:58;;;;;;;5.70;2.83;;;;;;;;;;5103237;28;20201;-27
2023/08/01 05:46:25;;;;;;;3.63;3.17;;;;;;;;;;5093772;28;20240;-25
2023/08/01 05:48:52;;;;;;;3.63;3.23;;;;;;;;;;5093236;28;20250;-27
2023/08/01 05:51:19;;;;;;;5.37;2.67;;;;;;;;;;5094440;28;20196;-26
2023/08/01 05:53:48;;;;;;;2.80;2.37;;;;;;;;;;5102345;28;20205;-27
2023/08/01 05:56:15;;;;;;;4.97;2.80;;;;;;;;;;5098637;28;20436;-26
2023/08/01 05:58:42;;;;;;;3.30;2.57;;;;;;;;;;5101493;28;20299;-25
2023/08/01 06:01:11;;;;;;;4.43;2.77;;;;;;;;;;5101725;28;20264;-29
2023/08/01 06:03:39;;;;;;;3.73;2.53;;;;;;;;;;5094473;28;20232;-25
2023/08/01 06:06:06;;;;;;;6.53;2.80;;;;;;;;;;5092020;28;20331;-24
2023/08/01 06:08:33;;;;;;;4.57;2.20;;;;;;;;;;5100815;28;20223;-28
2023/08/01 06:11:01;;;;;;;4.73;2.90;;;;;;;;;;5103243;28;20197;-26
2023/08/01 06:13:28;;;;;;;4.97;3.07;;;;;;;;;;5105280;28;20211;-24
2023/08/01 06:15:56;;;;;;;4.93;2.57;;;;;;;;;;5103589;28;20212;-26
2023/08/01 06:18:23;;;;;;;8.20;3.00;;;;;;;;;;5093207;28;20247;-26
2023/08/01 06:20:50;;;;;;;3.77;2.43;;;;;;;;;;5094507;28;20203;-25
2023/08/01 06:23:17;;;;;;;4.10;2.63;;;;;;;;;;5099573;28;20291;-27
2023/08/01 06:25:44;;;;;;;3.30;2.33;;;;;;;;;;5095094;28;20196;-27
2023/08/01 06:28:13;;;;;;;3.73;2.43;;;;;;;;;;5102361;28;20200;-25
2023/08/01 06:30:40;;;;;;;2.67;2.17;;;;;;;;;;5113188;28;20200;-26
2023/08/01 06:33:07;;;;;;;5.13;1.97;;;;;;;;;;5093317;28;20212;-25
2023/08/01 06:35:34;;;;;;;3.60;2.30;;;;;;;;;;5092953;28;20205;-24
2023/08/01 06:38:01;;;;;;;4.73;2.43;;;;;;;;;;5093502;28;20200;-29
2023/08/01 06:40:28;;;;;;;3.40;2.07;;;;;;;;;;5100634;28;20224;-24
2023/08/01 06:42:55;;;;;;;3.30;2.30;;;;;;;;;;5092223;28;20203;-38
2023/08/01 06:45:24;;;;;;;3.87;2.47;;;;;;;;;;5099804;28;20200;-25
2023/08/01 06:47:51;;;;;;;5.10;2.13;;;;;;;;;;5108740;28;20219;-24
2023/08/01 06:50:18;;;;;;;3.27;2.27;;;;;;;;;;5100268;28;20231;-27
2023/08/01 06:52:45;;;;;;;3.07;2.07;;;;;;;;;;5100883;28;20214;-28
2023/08/01 06:55:12;;;;;;;2.53;2.33;;;;;;;;;;5095302;28;20201;-26
2023/08/01 06:57:39;;;;;;;3.87;2.30;;;;;;;;;;5103040;28;20203;-25
2023/08/01 07:00:07;;;;;;;2.47;1.87;;;;;;;;;;5103971;28;20228;-25
2023/08/01 07:02:36;;;;;;;2.90;2.10;;;;;;;;;;5113176;28;20247;-25
2023/08/01 07:05:04;;;;;;;3.20;2.60;;;;;;;;;;5113355;28;20256;-27
2023/08/01 07:07:31;;;;;;;4.03;2.90;;;;;;;;;;5100087;28;20302;-25
2023/08/01 07:09:58;;;;;;;6.63;2.90;;;;;;;;;;5094136;28;20279;-29
2023/08/01 07:12:25;;;;;;;3.60;2.30;;;;;;;;;;5105092;28;20206;-27
2023/08/01 07:14:52;;;;;;;3.57;2.70;;;;;;;;;;5105210;28;20208;-24
2023/08/01 07:17:20;;;;;;;4.50;2.80;;;;;;;;;;5097708;28;20279;-24
2023/08/01 07:19:48;;;;;;;4.13;3.00;;;;;;;;;;5089978;28;20238;-28
2023/08/01 07:22:15;;;;;;;6.50;2.87;;;;;;;;;;5089801;28;20198;-24
2023/08/01 07:24:43;;;;;;;3.53;2.57;;;;;;;;;;5106844;28;20202;-28
2023/08/01 07:27:10;;;;;;;3.37;3.07;;;;;;;;;;5104932;28;20308;-24
2023/08/01 07:29:37;;;;;;;3.30;2.80;;;;;;;;;;5099432;28;20223;-24
2023/08/01 07:32:04;;;;;;;4.30;3.23;;;;;;;;;;5112820;28;20291;-27
2023/08/01 07:34:31;;;;;;;3.40;2.93;;;;;;;;;;5110001;28;20204;-28
2023/08/01 07:37:00;;;;;;;6.03;3.03;;;;;;;;;;5104235;28;20192;-27
2023/08/01 07:39:27;;;;;;;5.27;3.33;;;;;;;;;;5104013;28;20220;-27
2023/08/01 07:42:00;;;;;;;3.97;3.10;;;;;;;;;;5105518;28;20199;-24
2023/08/01 07:44:28;;;;;;;6.30;3.17;;;;;;;;;;5100233;28;20193;-28
2023/08/01 07:46:56;;;;;;;6.63;3.53;;;;;;;;;;5091774;28;20288;-26
2023/08/01 07:49:23;;;;;;;3.30;2.93;;;;;;;;;;5092194;28;20224;-27
2023/08/01 07:51:50;;;;;;;4.63;3.20;;;;;;;;;;5098355;28;20205;-25
2023/08/01 07:54:19;;;;;;;4.40;3.10;;;;;;;;;;5101388;28;20234;-26
2023/08/01 07:56:48;;;;;;;5.80;2.53;;;;;;;;;;5096786;28;20263;-26
2023/08/01 07:59:18;;;;;;;5.73;2.83;;;;;;;;;;5099245;28;20327;-27
2023/08/01 08:01:45;;;;;;;3.80;3.10;;;;;;;;;;5093543;28;20287;-25
2023/08/01 08:04:14;;;;;;;6.00;3.20;;;;;;;;;;5113804;28;20271;-23
2023/08/01 08:06:41;;;;;;;4.33;3.53;;;;;;;;;;5113667;28;20310;-27
2023/08/01 08:09:08;;;;;;;5.47;3.30;;;;;;;;;;5104507;28;20332;-28
2023/08/01 08:11:37;;;;;;;7.47;3.47;;;;;;;;;;5109343;28;20212;-28
2023/08/01 08:14:04;;;;;;;4.43;3.33;;;;;;;;;;5107581;28;20226;-25
2023/08/01 08:16:31;;;;;;;7.23;3.80;;;;;;;;;;5113180;28;20203;-30
2023/08/01 08:18:58;;;;;;;6.27;3.80;;;;;;;;;;5110885;28;20299;-27
2023/08/01 08:21:26;;;;;;;4.57;2.90;;;;;;;;;;5091132;28;20206;-27
2023/08/01 08:23:53;;;;;;;6.30;3.87;;;;;;;;;;5109489;28;20195;-26
2023/08/01 08:26:20;;;;;;;4.80;3.33;;;;;;;;;;5102582;28;20204;-26
2023/08/01 08:28:49;;;;;;;4.80;3.33;;;;;;;;;;5098013;28;20225;-25
2023/08/01 08:31:16;;;;;;;5.33;3.30;;;;;;;;;;5110642;28;20203;-27
2023/08/01 08:33:43;;;;;;;5.70;2.90;;;;;;;;;;5108556;28;20287;-26
2023/08/01 08:36:10;;;;;;;7.37;3.47;;;;;;;;;;5097469;28;20204;-25
2023/08/01 08:38:37;;;;;;;4.13;3.00;;;;;;;;;;5101046;28;20216;-28
2023/08/01 08:41:08;;;;;;;8.30;3.60;;;;;;;;;;5099292;28;20207;-28
2023/08/01 08:43:36;;;;;;;4.70;3.23;;;;;;;;;;5107229;28;20209;-28
2023/08/01 08:46:06;;;;;;;4.00;2.80;;;;;;;;;;5107268;28;20188;-27
2023/08/01 08:48:34;;;;;;;3.60;2.60;;;;;;;;;;5109426;28;20224;-25
2023/08/01 08:51:03;;;;;;;5.43;3.27;;;;;;;;;;5098083;28;20200;-26
2023/08/01 08:53:31;;;;;;;4.90;3.00;;;;;;;;;;5103514;28;20215;-27
2023/08/01 08:55:58;;;;;;;4.77;3.07;;;;;;;;;;5098644;28;20220;-27
2023/08/01 08:58:26;;;;;;;4.33;3.00;;;;;;;;;;5099834;28;20215;-30
2023/08/01 09:00:53;;;;;;;5.57;3.03;;;;;;;;;;5101934;28;20246;-26
2023/08/01 09:03:21;;;;;;;3.83;2.90;;;;;;;;;;5100173;28;20291;-29
2023/08/01 09:05:50;;;;;;;3.83;3.13;;;;;;;;;;5098568;28;20201;-29
2023/08/01 09:08:19;;;;;;;4.10;3.13;;;;;;;;;;5097939;28;20296;-27
2023/08/01 09:10:46;;;;;;;4.73;2.90;;;;;;;;;;5101254;28;20231;-27
2023/08/01 09:13:13;;;;;;;5.37;2.83;;;;;;;;;;5102682;28;20208;-28
2023/08/01 09:15:43;;;;;;;4.47;3.17;;;;;;;;;;5100853;28;20208;-29
2023/08/01 09:18:10;;;;;;;3.77;2.50;;;;;;;;;;5105087;28;20596;-28
2023/08/01 09:20:46;;;;;;;5.67;3.30;;;;;;;;;;5100120;28;20208;-28
2023/08/01 09:23:13;;;;;;;3.90;2.67;;;;;;;;;;5097412;28;20203;-31
2023/08/01 09:25:40;;;;;;;5.17;3.37;;;;;;;;;;5097606;28;20212;-27
2023/08/01 09:28:17;;;;;;;11.73;2.93;;;;;;;;;;5093913;28;20225;-27
2023/08/01 09:30:48;;;;;;;3.47;2.93;;;;;;;;;;5095771;28;20188;-28
2023/08/01 09:33:15;;;;;;;3.60;2.60;;;;;;;;;;5106324;28;20207;-29
2023/08/01 09:35:44;;;;;;;4.47;2.53;;;;;;;;;;5091056;28;20269;-29
2023/08/01 09:38:13;;;;;;;2.77;2.43;;;;;;;;;;5093394;28;20205;-28
2023/08/01 09:40:41;;;;;;;3.17;2.30;;;;;;;;;;5101341;28;20215;-24
2023/08/01 09:43:08;;;;;;;2.93;2.37;;;;;;;;;;5096908;28;20208;-29
2023/08/01 09:45:35;;;;;;;3.57;2.30;;;;;;;;;;5094433;28;20207;-28
2023/08/01 09:48:02;;;;;;;3.20;2.30;;;;;;;;;;5110443;28;20311;-27
2023/08/01 09:50:30;;;;;;;2.50;2.00;;;;;;;;;;5096500;28;20220;-30
2023/08/01 09:52:57;;;;;;;2.37;1.90;;;;;;;;;;5100376;28;20190;-29
2023/08/01 09:55:28;;;;;;;4.07;2.40;;;;;;;;;;5100789;28;20200;-27
2023/08/01 09:57:58;;;;;;;2.30;2.10;;;;;;;;;;5095275;28;20193;-29
2023/08/01 10:00:26;;;;;;;2.87;1.80;;;;;;;;;;5108640;28;20239;-29
2023/08/01 10:02:54;;;;;;;3.23;2.20;;;;;;;;;;5094173;28;20441;-29
2023/08/01 10:05:23;;;;;;;2.47;1.90;;;;;;;;;;5097711;28;20196;-27
2023/08/01 10:07:52;;;;;;;3.00;1.83;;;;;;;;;;5102140;28;20220;-29
2023/08/01 10:10:20;;;;;;;2.07;1.87;;;;;;;;;;5111474;28;20228;-30
2023/08/01 10:12:49;;;;;;;2.03;1.80;;;;;;;;;;5106060;28;20204;-29
2023/08/01 10:15:16;;;;;;;1.50;1.40;;;;;;;;;;5108057;28;20202;-27
2023/08/01 10:17:44;;;;;;;2.77;2.10;;;;;;;;;;5091407;28;20204;-27
2023/08/01 10:20:12;;;;;;;1.63;1.50;;;;;;;;;;5092201;28;20228;-30
2023/08/01 10:22:40;;;;;;;1.57;1.47;;;;;;;;;;5111423;28;20231;-26
2023/08/01 10:25:08;;;;;;;2.43;1.57;;;;;;;;;;5101485;28;20198;-26
2023/08/01 10:27:36;;;;;;;2.90;1.30;;;;;;;;;;5100380;28;20235;-25
2023/08/01 10:30:06;;;;;;;3.27;1.70;;;;;;;;;;5110443;28;20220;-28
2023/08/01 10:32:34;;;;;;;2.20;1.50;;;;;;;;;;5104353;28;20200;-28
2023/08/01 10:35:01;;;;;;;1.73;1.63;;;;;;;;;;5111308;28;20197;-27
2023/08/01 10:37:28;;;;;;;1.57;1.47;;;;;;;;;;5099499;28;20194;-28
2023/08/01 10:39:59;;;;;;;5.03;1.70;;;;;;;;;;5105953;28;20219;-28
2023/08/01 10:42:27;;;;;;;1.47;1.10;;;;;;;;;;5102171;28;20203;-26
2023/08/01 10:44:54;;;;;;;1.50;1.40;;;;;;;;;;5098956;28;20206;-27
2023/08/01 10:47:28;;;;;;;1.40;1.30;;;;;;;;;;5110023;28;20200;-30
2023/08/01 10:49:55;;;;;;;2.27;1.57;;;;;;;;;;5092450;28;20303;-28
2023/08/01 10:52:26;;;;;;;4.57;1.47;;;;;;;;;;5093628;28;20210;-28
2023/08/01 10:54:58;;;;;;;2.13;1.70;;;;;;;;;;5090090;28;20249;-25
2023/08/01 10:57:25;;;;;;;1.27;1.13;;;;;;;;;;5090643;28;20208;-28
2023/08/01 10:59:53;;;;;;;2.10;1.27;;;;;;;;;;5099524;28;20304;-30
2023/08/01 11:02:24;;;;;;;1.20;1.10;;;;;;;;;;5090981;28;20255;-28
2023/08/01 11:04:59;;;;;;;1.03;1.00;;;;;;;;;;5092628;28;20211;-30
2023/08/01 11:07:26;;;;;;;1.20;1.03;;;;;;;;;;5093914;28;20196;-26
2023/08/01 11:10:04;;;;;;;0.87;0.87;;;;;;;;;;5091541;28;20232;-28
2023/08/01 11:12:31;;;;;;;1.10;1.03;;;;;;;;;;5096075;28;20201;-28
2023/08/01 11:15:00;;;;;;;1.07;0.70;;;;;;;;;;5107411;28;20291;-28
2023/08/01 11:17:28;;;;;;;1.23;0.90;;;;;;;;;;5090291;28;20189;-26
2023/08/01 11:20:04;;;;;;;3.47;1.00;;;;;;;;;;5089970;28;20221;-29
2023/08/01 11:22:31;;;;;;;1.00;0.90;;;;;;;;;;5093000;28;20284;-27
2023/08/01 11:24:58;;;;;;;2.53;0.80;;;;;;;;;;5107681;28;20197;-30
2023/08/01 11:27:26;;;;;;;0.70;0.70;;;;;;;;;;5093551;28;20212;-28
2023/08/01 11:29:53;;;;;;;0.87;0.87;;;;;;;;;;5097305;28;20232;-27
2023/08/01 11:32:21;;;;;;;1.17;0.80;;;;;;;;;;5102903;28;20208;-25
2023/08/01 11:34:48;;;;;;;1.00;0.90;;;;;;;;;;5106778;28;20288;-30
2023/08/01 11:37:20;;;;;;;1.13;0.93;;;;;;;;;;5100566;28;20228;-26
2023/08/01 11:39:48;;;;;;;1.43;0.90;;;;;;;;;;5091922;28;20222;-28
2023/08/01 11:42:17;;;;;;;1.37;0.60;;;;;;;;;;5094383;28;20204;-27
2023/08/01 11:44:44;;;;;;;3.00;0.63;;;;;;;;;;5100637;28;20209;-28
2023/08/01 11:47:19;;;;;;;0.77;0.70;;;;;;;;;;5089250;28;20207;-27
2023/08/01 11:49:47;;;;;;;1.47;0.70;;;;;;;;;;5093182;28;20317;-25
2023/08/01 11:52:25;;;;;;;1.23;0.80;;;;;;;;;;5093550;28;20271;-26
2023/08/01 11:54:52;;;;;;;2.20;0.80;;;;;;;;;;5105121;28;20201;-28
2023/08/01 11:57:19;;;;;;;1.13;0.60;;;;;;;;;;5094817;28;20200;-24
2023/08/01 11:59:50;;;;;;;0.60;0.60;;;;;;;;;;5104285;28;20228;-26
2023/08/01 12:02:23;;;;;;;0.70;0.60;;;;;;;;;;5100600;28;20223;-28
2023/08/01 12:04:51;;;;;;;2.83;0.70;;;;;;;;;;5093481;28;20286;-30
2023/08/01 12:07:18;;;;;;;0.40;0.40;;;;;;;;;;5105523;28;20204;-26
2023/08/01 12:09:56;;;;;;;4.10;0.60;;;;;;;;;;5100812;28;20228;-30
2023/08/01 12:12:23;;;;;;;0.70;0.70;;;;;;;;;;5098075;28;20204;-28
2023/08/01 12:14:50;;;;;;;1.67;0.80;;;;;;;;;;5096893;28;20211;-29
2023/08/01 12:17:20;;;;;;;1.60;0.73;;;;;;;;;;5092007;28;20300;-26
2023/08/01 12:19:47;;;;;;;0.63;0.60;;;;;;;;;;5092905;28;20226;-27
2023/08/01 12:22:15;;;;;;;1.07;0.63;;;;;;;;;;5105368;28;20217;-26
2023/08/01 12:24:42;;;;;;;1.83;0.60;;;;;;;;;;5104471;28;20204;-26
2023/08/01 12:27:11;;;;;;;0.50;0.50;;;;;;;;;;5099560;28;20193;-28
2023/08/01 12:29:38;;;;;;;2.60;0.80;;;;;;;;;;5095844;28;20236;-30
2023/08/01 12:32:06;;;;;;;1.17;1.00;;;;;;;;;;5101076;28;20232;-25
2023/08/01 12:34:33;;;;;;;0.57;0.50;;;;;;;;;;5092614;28;20430;-27
2023/08/01 12:37:00;;;;;;;1.80;0.90;;;;;;;;;;5094099;28;20267;-27
2023/08/01 12:39:28;;;;;;;0.83;0.83;;;;;;;;;;5100755;28;20213;-28
2023/08/01 12:41:55;;;;;;;1.47;0.80;;;;;;;;;;5104892;28;20233;-28
2023/08/01 12:44:23;;;;;;;0.87;0.87;;;;;;;;;;5098093;28;20288;-26
2023/08/01 12:46:51;;;;;;;0.80;0.80;;;;;;;;;;5109406;28;20212;-29
2023/08/01 12:49:19;;;;;;;0.80;0.80;;;;;;;;;;5112137;28;20234;-26
2023/08/01 12:51:48;;;;;;;0.80;0.70;;;;;;;;;;5107389;28;20201;-29
2023/08/01 12:54:15;;;;;;;1.60;1.00;;;;;;;;;;5104265;28;20185;-28
2023/08/01 12:56:42;;;;;;;0.83;0.73;;;;;;;;;;5100938;28;20208;-30
2023/08/01 12:59:09;;;;;;;2.20;0.80;;;;;;;;;;5093832;28;20224;-26
2023/08/01 13:01:38;;;;;;;0.80;0.80;;;;;;;;;;5112497;28;20293;-27
2023/08/01 13:04:06;;;;;;;2.80;1.13;;;;;;;;;;5112392;28;20308;-25
2023/08/01 13:06:33;;;;;;;0.77;0.77;;;;;;;;;;5107318;28;20205;-28
2023/08/01 13:09:00;;;;;;;4.33;1.10;;;;;;;;;;5097259;28;20262;-33
2023/08/01 13:11:27;;;;;;;0.70;0.70;;;;;;;;;;5106399;28;20205;-38
2023/08/01 13:13:54;;;;;;;0.87;0.87;;;;;;;;;;5101852;28;20201;-34
2023/08/01 13:16:21;;;;;;;0.90;0.90;;;;;;;;;;5110914;28;20284;-33
2023/08/01 13:18:50;;;;;;;1.03;0.97;;;;;;;;;;5111939;28;20218;-37
2023/08/01 13:21:17;;;;;;;1.37;1.00;;;;;;;;;;5107954;28;20301;-37
2023/08/01 13:23:44;;;;;;;1.30;0.80;;;;;;;;;;5098177;28;20501;-33
2023/08/01 13:26:11;;;;;;;0.83;0.73;;;;;;;;;;5091652;28;20202;-35
2023/08/01 13:28:38;;;;;;;1.17;0.83;;;;;;;;;;5096487;28;20322;-35
2023/08/01 13:31:05;;;;;;;1.20;1.10;;;;;;;;;;5102927;28;20209;-35
2023/08/01 13:33:32;;;;;;;0.70;0.70;;;;;;;;;;5100036;28;20207;-31
2023/08/01 13:36:01;;;;;;;1.13;0.83;;;;;;;;;;5093395;28;20209;-31
2023/08/01 13:38:28;;;;;;;1.10;1.00;;;;;;;;;;5106363;28;20205;-35
2023/08/01 13:40:55;;;;;;;1.73;0.90;;;;;;;;;;5103283;28;20292;-34
2023/08/01 13:43:22;;;;;;;1.03;1.00;;;;;;;;;;5090972;28;20211;-32
2023/08/01 13:45:49;;;;;;;0.80;0.80;;;;;;;;;;5106203;28;20778;-37
2023/08/01 13:48:17;;;;;;;0.70;0.70;;;;;;;;;;5104245;28;20297;-35
2023/08/01 13:50:44;;;;;;;0.97;0.70;;;;;;;;;;5101482;28;20219;-33
2023/08/01 13:53:13;;;;;;;0.80;0.80;;;;;;;;;;5091504;28;20204;-37
2023/08/01 13:55:41;;;;;;;1.50;1.00;;;;;;;;;;5095870;28;20263;-35
2023/08/01 13:58:09;;;;;;;0.87;0.80;;;;;;;;;;5092645;28;20212;-35
2023/08/01 14:00:36;;;;;;;0.80;0.80;;;;;;;;;;5102394;28;20194;-32
2023/08/01 14:03:03;;;;;;;1.43;1.00;;;;;;;;;;5099335;28;20203;-31
2023/08/01 14:05:30;;;;;;;1.67;1.10;;;;;;;;;;5098295;28;20198;-36
2023/08/01 14:07:59;;;;;;;0.77;0.77;;;;;;;;;;5095724;28;20329;-34
2023/08/01 14:10:28;;;;;;;0.93;0.90;;;;;;;;;;5102536;28;20262;-35
2023/08/01 14:12:55;;;;;;;2.60;1.00;;;;;;;;;;5094422;28;20207;-35
2023/08/01 14:15:22;;;;;;;0.97;0.80;;;;;;;;;;5100236;28;20206;-35
2023/08/01 14:17:49;;;;;;;1.77;1.00;;;;;;;;;;5094934;28;20207;-30
2023/08/01 14:20:17;;;;;;;1.57;1.10;;;;;;;;;;5100037;28;20250;-37
2023/08/01 14:22:44;;;;;;;1.00;0.90;;;;;;;;;;5097777;28;20206;-34
2023/08/01 14:25:12;;;;;;;1.53;0.77;;;;;;;;;;5101897;28;20210;-32
2023/08/01 14:27:40;;;;;;;2.53;0.90;;;;;;;;;;5089823;28;20234;-33
2023/08/01 14:30:08;;;;;;;2.10;1.10;;;;;;;;;;5094864;28;20235;-34
2023/08/01 14:32:38;;;;;;;1.47;0.90;;;;;;;;;;5094094;28;20202;-37
2023/08/01 14:35:06;;;;;;;1.77;1.00;;;;;;;;;;5089938;28;20210;-34
2023/08/01 14:37:34;;;;;;;0.93;0.93;;;;;;;;;;5100419;28;20297;-33
2023/08/01 14:40:01;;;;;;;1.57;0.90;;;;;;;;;;5092894;28;20223;-40
2023/08/01 14:42:28;;;;;;;0.73;0.73;;;;;;;;;;5095895;28;20306;-26
2023/08/01 14:44:57;;;;;;;2.47;1.20;;;;;;;;;;5108597;28;20266;-29
2023/08/01 14:47:24;;;;;;;0.87;0.77;;;;;;;;;;5112598;28;20222;-31
2023/08/01 14:49:56;;;;;;;4.30;0.90;;;;;;;;;;5111730;28;20237;-32
2023/08/01 14:52:23;;;;;;;1.37;0.77;;;;;;;;;;5101814;28;20210;-31
2023/08/01 14:54:57;;;;;;;1.57;1.10;;;;;;;;;;5108136;28;20214;-37
2023/08/01 14:57:24;;;;;;;2.13;0.90;;;;;;;;;;5093990;28;20339;-33
2023/08/01 14:59:51;;;;;;;2.70;0.90;;;;;;;;;;5099221;28;20233;-28
2023/08/01 15:02:20;;;;;;;2.17;1.00;;;;;;;;;;5113440;28;20214;-31
2023/08/01 15:04:47;;;;;;;1.60;1.00;;;;;;;;;;5096854;28;20219;-35
2023/08/01 15:07:14;;;;;;;0.93;0.87;;;;;;;;;;5101551;28;20303;-38
2023/08/01 15:09:43;;;;;;;1.23;0.70;;;;;;;;;;5100224;28;20232;-32
2023/08/01 15:12:11;;;;;;;0.90;0.90;;;;;;;;;;5095159;28;20207;-33
2023/08/01 15:14:38;;;;;;;1.63;0.93;;;;;;;;;;5100190;28;20294;-38
2023/08/01 15:17:05;;;;;;;1.23;1.13;;;;;;;;;;5104120;28;20217;-33
2023/08/01 15:19:34;;;;;;;1.10;0.97;;;;;;;;;;5103378;28;20250;-34
2023/08/01 15:22:03;;;;;;;0.60;0.60;;;;;;;;;;5095145;28;20196;-32
2023/08/01 15:24:31;;;;;;;1.43;0.80;;;;;;;;;;5103177;28;20217;-37
2023/08/01 15:26:58;;;;;;;1.00;1.00;;;;;;;;;;5095479;28;20217;-34
2023/08/01 15:29:25;;;;;;;3.23;1.00;;;;;;;;;;5103730;28;20302;-32
2023/08/01 15:31:52;;;;;;;3.73;1.30;;;;;;;;;;5100134;28;20232;-33
2023/08/01 15:34:20;;;;;;;1.93;1.00;;;;;;;;;;5092264;28;20206;-31
2023/08/01 15:36:48;;;;;;;2.73;0.80;;;;;;;;;;5102512;28;20206;-30
2023/08/01 15:39:16;;;;;;;1.40;0.70;;;;;;;;;;5092238;28;20223;-34
2023/08/01 15:41:43;;;;;;;0.93;0.87;;;;;;;;;;5104296;28;20198;-31
2023/08/01 15:44:10;;;;;;;0.90;0.87;;;;;;;;;;5098382;28;20274;-32
2023/08/01 15:46:38;;;;;;;1.93;1.10;;;;;;;;;;5105218;28;20232;-33
2023/08/01 15:49:05;;;;;;;2.43;1.00;;;;;;;;;;5103847;28;20239;-33
2023/08/01 15:51:33;;;;;;;1.30;1.20;;;;;;;;;;5101257;28;20210;-34
2023/08/01 15:54:01;;;;;;;1.23;0.80;;;;;;;;;;5100001;28;20226;-34
2023/08/01 15:56:28;;;;;;;1.03;0.93;;;;;;;;;;5096746;28;20207;-34
2023/08/01 15:58:56;;;;;;;1.73;1.10;;;;;;;;;;5097651;28;20220;-35
2023/08/01 16:01:23;;;;;;;0.93;0.93;;;;;;;;;;5099056;28;20289;-36
2023/08/01 16:03:50;;;;;;;2.10;1.00;;;;;;;;;;5103582;28;20206;-32
2023/08/01 16:06:21;;;;;;;1.13;1.03;;;;;;;;;;5093187;28;20291;-32
2023/08/01 16:08:49;;;;;;;1.00;0.90;;;;;;;;;;5092444;28;20232;-37
2023/08/01 16:11:17;;;;;;;1.00;0.90;;;;;;;;;;5098492;28;20209;-34
2023/08/01 16:13:44;;;;;;;3.73;2.17;;;;;;;;;;5094056;28;20207;-32
2023/08/01 16:16:11;;;;;;;1.67;0.70;;;;;;;;;;5091869;28;20302;-32
2023/08/01 16:18:39;;;;;;;0.90;0.90;;;;;;;;;;5092152;28;20281;-36
2023/08/01 16:21:06;;;;;;;1.33;0.90;;;;;;;;;;5093338;28;20225;-31
2023/08/01 16:23:33;;;;;;;1.20;0.90;;;;;;;;;;5108015;28;20318;-36
2023/08/01 16:26:02;;;;;;;5.60;0.93;;;;;;;;;;5094346;28;20216;-31
2023/08/01 16:28:30;;;;;;;1.57;0.90;;;;;;;;;;5093197;28;20276;-33
2023/08/01 16:30:57;;;;;;;1.87;0.97;;;;;;;;;;5107155;28;20222;-32
2023/08/01 16:33:25;;;;;;;1.53;0.93;;;;;;;;;;5113808;28;20220;-30
2023/08/01 16:35:52;;;;;;;1.13;0.90;;;;;;;;;;5109618;28;20202;-30
2023/08/01 16:38:19;;;;;;;0.80;0.80;;;;;;;;;;5110897;28;20206;-34
2023/08/01 16:40:46;;;;;;;1.87;0.93;;;;;;;;;;5103414;28;20202;-33
2023/08/01 16:43:13;;;;;;;1.27;0.87;;;;;;;;;;5109597;28;20205;-30
2023/08/01 16:45:42;;;;;;;1.27;0.90;;;;;;;;;;5111859;28;20210;-33
2023/08/01 16:48:09;;;;;;;0.90;0.90;;;;;;;;;;5115358;28;20255;-33
2023/08/01 16:50:37;;;;;;;1.90;1.00;;;;;;;;;;5108003;28;20528;-34
2023/08/01 16:53:04;;;;;;;1.57;0.80;;;;;;;;;;5103763;28;20306;-29
2023/08/01 16:55:32;;;;;;;1.97;0.87;;;;;;;;;;5108762;28;20206;-35
2023/08/01 16:57:59;;;;;;;4.13;1.07;;;;;;;;;;5105352;28;20229;-35
2023/08/01 17:00:26;;;;;;;0.80;0.80;;;;;;;;;;5112485;28;20229;-33
2023/08/01 17:02:56;;;;;;;0.97;0.60;;;;;;;;;;5098216;28;20205;-35
2023/08/01 17:05:23;;;;;;;1.60;0.97;;;;;;;;;;5098126;28;20214;-34
2023/08/01 17:07:51;;;;;;;3.27;0.93;;;;;;;;;;5113517;28;20213;-36